Time;durP1;ratioP1;P1;durP2;ratioP2;P2;SDS_P1;SDS_P2;PMS_P1;PMS_P2;Temp;Humidity;BMP_temperature;BMP_pressure;BME280_temperature;BME280_humidity;BME280_pressure;Samples;Min_cycle;Max_cycle;Signal;HPM_P1;HPM_P2
2022/09/27 00:00:29;;;;;;;4.57;1.60;;;;;;;18.71;45.75;100379.16;5054843;28;20286;-61
2022/09/27 00:03:16;;;;;;;7.10;1.37;;;;;;;18.36;42.64;100318.19;5055552;28;20441;-62
2022/09/27 00:06:04;;;;;;;5.07;1.63;;;;;;;18.46;41.47;100329.19;5106321;28;20316;-61
2022/09/27 00:08:44;;;;;;;8.55;1.52;;;;;;;19.02;42.67;100401.50;5107442;28;20335;-62
2022/09/27 00:11:29;;;;;;;5.60;1.13;;;;;;;19.11;40.01;100401.06;5105659;28;20056;-62
2022/09/27 00:14:21;;;;;;;5.23;1.67;;;;;;;18.47;42.83;100333.56;5107402;28;20278;-63
2022/09/27 00:19:46;;;;;;;7.70;1.10;;;;;;;18.68;41.65;100403.13;5105858;28;20294;-62
2022/09/27 00:25:31;;;;;;;14.13;1.50;;;;;;;18.67;41.54;100385.50;5094773;28;20290;-63
2022/09/27 00:28:31;;;;;;;4.65;1.00;;;;;;;18.87;41.45;100393.41;5093524;28;20294;-62
2022/09/27 00:31:28;;;;;;;7.17;1.40;;;;;;;18.83;36.96;100391.84;5093955;28;20093;-64
2022/09/27 00:34:13;;;;;;;5.73;1.10;;;;;;;18.79;37.34;100400.84;5073662;28;20291;-63
2022/09/27 00:36:56;;;;;;;2.70;1.10;;;;;;;18.85;40.66;100389.97;5073165;28;20345;-62
2022/09/27 00:39:32;;;;;;;3.70;0.93;;;;;;;18.91;38.37;100383.50;5073251;28;20333;-63
2022/09/27 00:42:15;;;;;;;5.13;1.17;;;;;;;18.92;36.06;100386.09;5073028;28;20284;-62
2022/09/27 00:45:25;;;;;;;5.67;0.80;;;;;;;18.92;33.93;100385.22;5073441;28;20558;-62
2022/09/27 00:48:16;;;;;;;2.67;0.90;;;;;;;19.03;36.51;100382.06;5073510;28;20310;-63
2022/09/27 00:51:04;;;;;;;5.77;0.80;;;;;;;19.00;33.44;100392.81;5073727;28;20368;-64
2022/09/27 00:53:50;;;;;;;4.40;0.80;;;;;;;19.02;36.57;100401.50;5015003;28;20504;-63
2022/09/27 00:56:44;;;;;;;3.53;0.93;;;;;;;18.96;32.32;100403.53;5074212;28;20290;-62
2022/09/27 00:59:40;;;;;;;7.17;1.53;;;;;;;18.95;35.24;100401.81;5041458;28;20487;-63
2022/09/27 01:02:21;;;;;;;34.70;2.70;;;;;;;19.07;37.12;100395.06;5041798;28;20287;-64
2022/09/27 01:05:20;;;;;;;5.57;0.90;;;;;;;19.03;32.61;100404.09;5040842;28;20371;-66
2022/09/27 01:11:22;;;;;;;3.17;0.97;;;;;;;18.92;33.72;100391.41;5001671;28;20201;-62
2022/09/27 01:14:34;;;;;;;17.17;1.37;;;;;;;18.94;35.37;100394.78;5001371;28;20285;-62
2022/09/27 01:17:36;;;;;;;3.13;0.80;;;;;;;19.14;35.55;100396.47;4986967;28;20311;-62
2022/09/27 01:21:03;;;;;;;8.70;0.97;;;;;;;19.19;33.65;100393.59;5001835;28;20404;-61
2022/09/27 01:24:21;;;;;;;6.97;1.00;;;;;;;19.23;32.37;100405.75;5000604;28;20289;-61
2022/09/27 01:27:42;;;;;;;3.10;1.10;;;;;;;19.26;35.78;100383.56;5001413;28;20327;-61
2022/09/27 01:31:08;;;;;;;2.97;0.80;;;;;;;19.27;29.01;100388.78;5001563;28;20289;-63
2022/09/27 01:33:56;;;;;;;3.72;0.70;;;;;;;19.07;32.27;100404.78;5001380;28;20450;-61
2022/09/27 01:36:46;;;;;;;5.97;1.07;;;;;;;19.12;28.82;100408.06;5001090;28;20073;-62
2022/09/27 01:39:46;;;;;;;20.73;1.93;;;;;;;18.70;30.45;100353.63;5001530;28;20289;-62
2022/09/27 01:42:41;;;;;;;2.67;1.20;;;;;;;18.94;27.82;100376.25;4968547;28;20312;-62
2022/09/27 01:45:36;;;;;;;8.80;1.00;;;;;;;19.07;26.84;100399.50;5001311;28;20380;-63
2022/09/27 01:48:28;;;;;;;3.00;0.80;;;;;;;18.88;27.33;100384.53;5001281;28;20320;-62
2022/09/27 01:51:10;;;;;;;7.07;0.87;;;;;;;19.02;30.84;100401.50;5006997;28;20300;-62
2022/09/27 01:57:15;;;;;;;9.10;0.98;;;;;;;19.01;26.26;100400.66;5000219;28;20054;-63
2022/09/27 01:59:53;;;;;;;17.75;1.70;;;;;;;19.09;31.37;100424.13;5000724;28;20118;-63
2022/09/27 02:02:36;;;;;;;18.23;1.63;;;;;;;19.24;28.89;100412.75;5072305;28;20103;-61
2022/09/27 02:05:31;;;;;;;16.47;1.47;;;;;;;19.10;27.81;100407.31;5069629;28;20033;-64
2022/09/27 02:08:27;;;;;;;7.27;0.83;;;;;;;19.22;29.64;100416.41;5071317;28;20450;-63
2022/09/27 02:11:15;;;;;;;4.23;0.70;;;;;;;19.13;28.86;100415.09;5072099;28;20295;-61
2022/09/27 02:14:02;;;;;;;4.82;1.00;;;;;;;19.18;27.75;100408.63;5071641;28;20723;-63
2022/09/27 02:16:55;;;;;;;6.63;0.70;;;;;;;19.19;28.61;100414.78;5071435;28;20070;-62
2022/09/27 02:20:08;;;;;;;27.27;1.70;;;;;;;19.17;28.51;100400.78;5070736;28;20290;-62
2022/09/27 02:22:46;;;;;;;11.93;0.90;;;;;;;19.21;28.61;100423.50;5023256;28;20338;-64
2022/09/27 02:25:44;;;;;;;18.20;1.60;;;;;;;19.36;29.89;100406.84;5034583;28;20315;-61
2022/09/27 02:28:45;;;;;;;5.65;1.27;;;;;;;19.47;27.41;100413.38;5068937;28;20310;-61
2022/09/27 02:31:17;;;;;;;5.17;0.70;;;;;;;19.53;29.68;100407.78;5069688;28;20054;-64
2022/09/27 02:36:54;;;;;;;53.97;4.23;;;;;;;19.63;29.50;100419.63;5037679;28;20317;-62
2022/09/27 02:39:43;;;;;;;42.97;3.07;;;;;;;19.56;29.02;100418.22;5070633;28;20630;-62
2022/09/27 02:45:26;;;;;;;20.90;1.50;;;;;;;19.41;27.47;100414.56;5044633;28;20279;-62
2022/09/27 02:48:12;;;;;;;5.03;0.77;;;;;;;19.38;24.56;100418.22;5071300;28;20378;-62
2022/09/27 02:51:31;;;;;;;8.90;0.73;;;;;;;19.40;26.11;100404.91;5070722;28;20382;-62
2022/09/27 02:54:39;;;;;;;11.57;0.70;;;;;;;19.30;28.28;100407.16;5071389;28;20167;-62
2022/09/27 02:57:34;;;;;;;5.53;0.90;;;;;;;19.30;28.30;100385.97;5071425;28;20114;-64
2022/09/27 03:00:17;;;;;;;23.13;1.45;;;;;;;19.32;28.75;100389.41;5071667;28;20374;-63
2022/09/27 03:03:21;;;;;;;11.97;1.43;;;;;;;19.37;29.29;100392.69;5024814;28;20067;-65
2022/09/27 03:06:01;;;;;;;1.80;0.70;;;;;;;19.11;28.79;100348.94;5071407;28;20310;-63
2022/09/27 03:08:36;;;;;;;14.20;1.00;;;;;;;19.39;28.99;100380.22;5071523;28;20641;-62
2022/09/27 03:11:15;;;;;;;15.77;1.57;;;;;;;19.43;29.08;100370.31;5070404;28;20302;-63
2022/09/27 03:14:04;;;;;;;4.37;1.10;;;;;;;19.34;28.50;100387.50;5071216;28;20603;-63
2022/09/27 03:16:54;;;;;;;1.30;0.47;;;;;;;19.26;24.83;100384.41;5072578;28;20323;-63
2022/09/27 03:19:34;;;;;;;3.80;0.70;;;;;;;19.19;26.36;100383.00;5070987;28;20283;-63
2022/09/27 03:22:15;;;;;;;;;;;;;;;19.18;27.75;100381.28;5070851;28;20630;-63
2022/09/27 03:25:09;;;;;;;1.30;0.60;;;;;;;19.24;25.46;100390.72;5028261;28;19927;-65
2022/09/27 03:27:50;;;;;;;0.77;0.63;;;;;;;19.12;25.65;100368.34;5011694;28;20315;-63
2022/09/27 03:33:42;;;;;;;5.03;0.60;;;;;;;18.93;25.09;100366.63;5035268;28;20296;-61
2022/09/27 03:36:25;;;;;;;8.57;0.97;;;;;;;18.86;25.33;100359.91;5041614;28;20284;-62
2022/09/27 03:39:11;;;;;;;6.67;1.03;;;;;;;18.82;26.18;100358.38;4996664;28;20280;-62
2022/09/27 03:41:56;;;;;;;16.03;1.17;;;;;;;18.75;24.96;100363.09;5042612;28;20296;-63
2022/09/27 03:44:45;;;;;;;2.38;0.60;;;;;;;18.72;26.17;100351.75;5041412;28;20559;-63
2022/09/27 03:47:34;;;;;;;2.20;0.87;;;;;;;18.52;26.16;100303.31;5008892;28;20045;-64
2022/09/27 03:50:24;;;;;;;2.33;0.70;;;;;;;18.70;26.04;100337.75;5027727;28;20655;-63
2022/09/27 03:53:07;;;;;;;11.00;0.97;;;;;;;18.89;28.83;100341.22;5042407;28;20446;-62
2022/09/27 03:55:48;;;;;;;16.10;1.47;;;;;;;19.10;27.99;100341.09;5042119;28;20296;-62
2022/09/27 03:58:20;;;;;;;7.68;1.25;;;;;;;19.20;29.41;100342.34;5012715;28;20288;-65
2022/09/27 04:01:04;;;;;;;1.00;0.60;;;;;;;19.34;29.77;100333.69;5041713;28;20057;-65
2022/09/27 04:03:37;;;;;;;4.43;0.60;;;;;;;19.36;27.71;100335.31;5041797;28;20276;-63
2022/09/27 04:06:28;;;;;;;3.55;1.00;;;;;;;19.19;28.43;100303.53;5042134;28;20299;-64
2022/09/27 04:09:07;;;;;;;2.03;0.50;;;;;;;19.40;29.06;100334.22;5042084;28;20072;-63
2022/09/27 04:11:46;;;;;;;2.37;0.70;;;;;;;19.46;29.65;100332.19;5041597;28;20291;-63
2022/09/27 04:14:31;;;;;;;0.57;0.50;;;;;;;19.51;26.47;100340.75;5041849;28;20284;-63
2022/09/27 04:17:20;;;;;;;1.70;0.63;;;;;;;19.37;28.62;100339.69;5041175;28;20382;-65
2022/09/27 04:20:10;;;;;;;9.53;0.90;;;;;;;19.34;27.26;100350.41;5040896;28;20280;-63
2022/09/27 04:22:59;;;;;;;;;;;;;;;19.17;24.89;100339.84;5042443;28;20319;-65
2022/09/27 04:25:38;;;;;;;7.30;0.90;;;;;;;19.10;27.11;100355.19;5041749;28;19967;-64
2022/09/27 04:28:35;;;;;;;4.53;0.60;;;;;;;19.12;26.82;100355.09;5041491;28;20307;-63
2022/09/27 04:31:12;;;;;;;4.83;0.67;;;;;;;18.89;26.99;100327.97;5041636;28;20296;-63
2022/09/27 04:33:54;;;;;;;5.97;0.60;;;;;;;19.11;26.70;100358.69;5041729;28;20284;-64
2022/09/27 04:36:37;;;;;;;3.87;0.80;;;;;;;19.07;26.32;100357.13;5041704;28;20116;-64
2022/09/27 04:39:17;;;;;;;3.27;0.50;;;;;;;18.92;25.34;100359.63;5041479;28;20332;-66
2022/09/27 04:42:25;;;;;;;20.37;3.37;;;;;;;18.94;26.54;100357.72;5040819;28;20292;-67
2022/09/27 04:45:16;;;;;;;12.80;0.87;;;;;;;18.98;26.39;100357.59;5002643;28;20280;-61
2022/09/27 04:47:57;;;;;;;0.87;0.53;;;;;;;18.61;25.79;100320.50;5039078;28;20362;-65
2022/09/27 04:50:48;;;;;;;1.93;0.60;;;;;;;18.71;26.75;100365.91;5040966;28;20355;-65
2022/09/27 04:53:41;;;;;;;1.07;0.60;;;;;;;18.67;28.34;100353.75;5040438;28;20312;-65
2022/09/27 04:59:23;;;;;;;8.93;1.10;;;;;;;18.64;25.84;100359.22;5037937;28;20315;-64
2022/09/27 05:02:19;;;;;;;10.20;1.33;;;;;;;18.51;26.41;100364.22;5039293;28;20299;-66
2022/09/27 05:05:05;;;;;;;16.73;1.60;;;;;;;18.33;25.94;100371.25;5037399;28;20316;-63
2022/09/27 05:07:51;;;;;;;5.47;1.10;;;;;;;18.26;25.89;100361.88;5037852;28;20323;-65
2022/09/27 05:10:27;;;;;;;6.90;1.20;;;;;;;18.25;25.16;100362.84;4998043;28;20505;-65
2022/09/27 05:15:52;;;;;;;11.57;1.10;;;;;;;17.59;25.75;100300.56;5026024;28;20233;-64
2022/09/27 05:18:30;;;;;;;11.23;1.70;;;;;;;18.05;27.65;100387.53;5037980;28;20337;-65
2022/09/27 05:21:17;;;;;;;6.83;2.03;;;;;;;18.03;26.42;100395.53;5038535;28;20310;-64
2022/09/27 05:24:04;;;;;;;5.87;1.10;;;;;;;17.98;28.15;100404.59;5040295;28;20427;-64
2022/09/27 05:26:40;;;;;;;4.47;1.40;;;;;;;17.91;25.36;100398.72;5040340;28;20342;-64
2022/09/27 05:29:21;;;;;;;8.37;1.33;;;;;;;17.89;26.91;100424.38;5034874;28;20305;-64
2022/09/27 05:31:58;;;;;;;3.13;0.73;;;;;;;17.96;27.49;100425.81;5031441;28;20826;-65
2022/09/27 05:34:48;;;;;;;11.40;1.10;;;;;;;17.88;28.08;100420.03;5031757;28;20303;-65
2022/09/27 05:37:43;;;;;;;7.33;1.23;;;;;;;17.92;27.66;100424.22;5008058;28;20331;-65
2022/09/27 05:40:33;;;;;;;11.63;1.47;;;;;;;17.91;29.54;100419.03;5032082;28;20587;-65
2022/09/27 05:43:18;;;;;;;7.80;0.80;;;;;;;17.96;29.61;100415.25;5031290;28;20324;-65
2022/09/27 05:46:04;;;;;;;12.30;1.20;;;;;;;17.97;29.13;100411.69;5032166;28;20324;-66
2022/09/27 05:48:52;;;;;;;10.27;0.80;;;;;;;18.00;30.23;100419.47;5030625;28;20312;-64
2022/09/27 05:51:31;;;;;;;39.78;2.72;;;;;;;17.95;29.89;100429.41;5032047;28;20316;-65
2022/09/27 05:54:21;;;;;;;3.47;0.90;;;;;;;17.83;29.85;100419.38;5033089;28;20053;-66
2022/09/27 05:57:15;;;;;;;69.47;4.27;;;;;;;17.77;31.14;100425.75;5032124;28;20592;-64
2022/09/27 06:00:48;;;;;;;6.57;1.07;;;;;;;17.75;30.30;100429.38;5032795;28;20289;-64
2022/09/27 06:03:59;;;;;;;24.80;2.33;;;;;;;17.68;30.76;100432.28;4907778;27;5770622;-66
2022/09/27 06:06:39;;;;;;;21.13;2.30;;;;;;;17.59;29.75;100430.03;5087667;28;20050;-67
2022/09/27 06:09:18;;;;;;;18.20;1.50;;;;;;;17.47;30.64;100422.63;5086510;28;20294;-62
2022/09/27 06:11:59;;;;;;;7.17;1.53;;;;;;;17.41;30.05;100444.03;5088812;28;20321;-62
2022/09/27 06:14:38;;;;;;;14.07;1.53;;;;;;;17.34;30.38;100432.00;5084176;28;20302;-64
2022/09/27 06:17:24;;;;;;;33.90;3.20;;;;;;;17.32;31.13;100439.13;5087399;28;20298;-64
2022/09/27 06:20:13;;;;;;;16.40;1.60;;;;;;;17.28;30.89;100448.09;5088176;28;20295;-63
2022/09/27 06:22:55;;;;;;;8.63;0.83;;;;;;;17.12;29.91;100438.13;5035464;28;20306;-62
2022/09/27 06:25:29;;;;;;;4.90;0.73;;;;;;;17.03;29.72;100459.66;5086531;28;20275;-63
2022/09/27 06:28:09;;;;;;;;;;;;;;;16.94;28.51;100465.28;5039759;28;20290;-63
2022/09/27 06:30:50;;;;;;;7.53;1.47;;;;;;;16.77;29.08;100445.69;5086458;28;19987;-62
2022/09/27 06:33:34;;;;;;;9.00;1.00;;;;;;;16.81;28.01;100449.09;5087353;28;20298;-64
2022/09/27 06:36:27;;;;;;;5.63;0.73;;;;;;;16.47;29.27;100402.00;5088080;28;20052;-64
2022/09/27 06:39:14;;;;;;;53.03;2.80;;;;;;;16.71;29.65;100459.09;5086315;28;20344;-63
2022/09/27 06:41:58;;;;;;;10.70;0.90;;;;;;;16.60;29.17;100451.59;5051330;28;20272;-65
2022/09/27 06:44:38;;;;;;;38.43;3.87;;;;;;;16.52;29.48;100468.63;5085936;28;20083;-64
2022/09/27 06:47:29;;;;;;;3.67;0.70;;;;;;;16.48;30.34;100467.03;5087530;28;20654;-64
2022/09/27 06:50:08;;;;;;;5.47;1.53;;;;;;;16.34;29.35;100471.03;5054508;28;20311;-63
2022/09/27 06:52:56;;;;;;;7.80;1.03;;;;;;;15.93;29.52;100420.69;5053000;28;20310;-63
2022/09/27 06:55:33;;;;;;;6.93;0.83;;;;;;;16.21;29.82;100472.41;5086802;28;20282;-64
2022/09/27 07:01:17;;;;;;;18.47;1.33;;;;;;;16.02;29.82;100468.69;5087082;28;20278;-63
2022/09/27 07:03:58;;;;;;;8.40;2.30;;;;;;;15.92;28.59;100478.72;5082962;28;20311;-63
2022/09/27 07:06:36;;;;;;;5.23;1.07;;;;;;;15.84;29.46;100483.38;5087413;28;20336;-63
2022/09/27 07:12:10;;;;;;;4.77;0.87;;;;;;;15.71;31.46;100475.06;5084562;28;20286;-63
2022/09/27 07:14:51;;;;;;;17.17;1.30;;;;;;;15.65;31.94;100475.22;5074551;28;20317;-64
2022/09/27 07:17:36;;;;;;;20.67;2.77;;;;;;;15.62;32.85;100480.59;5026595;28;20295;-64
2022/09/27 07:20:54;;;;;;;5.80;1.07;;;;;;;15.62;33.70;100480.59;5070929;28;20291;-64
2022/09/27 07:23:39;;;;;;;4.73;0.93;;;;;;;15.56;33.81;100492.19;5072992;28;20317;-65
2022/09/27 07:26:29;;;;;;;230.93;14.80;;;;;;;15.53;34.58;100487.91;5072361;28;20295;-64
2022/09/27 07:29:12;;;;;;;14.40;1.30;;;;;;;15.44;34.54;100497.88;5073964;28;20483;-65
2022/09/27 07:32:03;;;;;;;6.27;0.90;;;;;;;15.35;35.02;100493.78;5072903;28;20290;-65
2022/09/27 07:34:45;;;;;;;6.40;1.50;;;;;;;15.26;35.80;100483.53;5026851;28;20287;-62
2022/09/27 07:37:22;;;;;;;21.97;2.37;;;;;;;15.19;36.34;100482.00;5073364;28;20303;-62
2022/09/27 07:43:00;;;;;;;5.80;0.97;;;;;;;15.15;38.82;100483.00;5029462;28;20286;-63
2022/09/27 07:45:38;;;;;;;;;;;;;;;15.03;38.79;100490.38;5029240;28;20378;-62
2022/09/27 07:51:15;;;;;;;50.53;3.10;;;;;;;14.74;39.42;100482.53;5073485;28;20051;-62
2022/09/27 07:56:42;;;;;;;4.32;1.35;;;;;;;14.66;40.31;100486.25;5073100;28;20291;-63
2022/09/27 07:59:38;;;;;;;141.18;8.90;;;;;;;14.50;40.24;100482.28;5072459;28;20063;-62
2022/09/27 08:02:23;;;;;;;20.23;2.77;;;;;;;14.14;42.10;100468.44;5071984;28;20100;-63
2022/09/27 08:05:18;;;;;;;26.00;3.60;;;;;;;14.05;42.21;100466.91;5070786;28;20325;-62
2022/09/27 08:08:16;;;;;;;5.03;1.63;;;;;;;14.29;42.43;100511.84;4987412;28;20301;-62
2022/09/27 08:13:51;;;;;;;7.57;2.10;;;;;;;13.93;43.36;100518.03;5070790;28;20279;-63
2022/09/27 08:16:38;;;;;;;6.97;2.08;;;;;;;13.64;45.29;100489.91;5071500;28;20302;-63
2022/09/27 08:19:29;;;;;;;3.83;1.27;;;;;;;13.61;46.15;100529.38;5043289;28;20060;-63
2022/09/27 08:28:26;;;;;;;7.70;1.85;;;;;;;12.95;47.80;100531.72;5072153;28;20142;-64
2022/09/27 08:31:04;;;;;;;79.82;5.50;;;;;;;12.70;49.25;100520.03;5072368;28;20083;-64
2022/09/27 08:34:01;;;;;;;19.10;3.17;;;;;;;12.26;50.24;100534.91;5029235;28;20074;-64
2022/09/27 08:39:33;;;;;;;27.98;3.25;;;;;;;11.55;53.29;100541.31;5071616;28;20052;-64
2022/09/27 08:42:35;;;;;;;12.15;2.40;;;;;;;11.09;54.90;100544.63;5070382;28;20063;-64
2022/09/27 08:45:29;;;;;;;17.27;1.63;;;;;;;10.52;56.40;100539.25;5070359;28;20060;-64
2022/09/27 08:48:13;;;;;;;9.98;2.10;;;;;;;10.26;57.69;100553.44;5070706;28;20060;-63
2022/09/27 08:50:53;;;;;;;42.35;3.53;;;;;;;10.05;59.12;100564.09;5072818;28;20066;-64
2022/09/27 08:53:36;;;;;;;62.95;37.13;;;;;;;9.92;60.45;100553.75;5070763;28;20310;-64
2022/09/27 08:56:14;;;;;;;82.55;46.70;;;;;;;9.92;60.48;100558.13;5073299;28;20248;-64
2022/09/27 08:59:08;;;;;;;72.80;35.63;;;;;;;10.12;59.98;100560.56;5072497;28;20052;-64
2022/09/27 09:01:58;;;;;;;44.88;10.48;;;;;;;10.41;58.82;100548.94;5070261;28;20076;-64
2022/09/27 09:04:39;;;;;;;11.63;6.40;;;;;;;10.55;57.74;100560.13;5070318;28;20090;-64
2022/09/27 09:07:52;;;;;;;15.30;8.93;;;;;;;10.59;57.65;100556.59;5071414;28;20053;-64
2022/09/27 09:14:41;;;;;;;35.67;11.88;;;;;;;10.15;55.99;100550.06;5070690;28;20095;-65
2022/09/27 09:17:32;;;;;;;37.08;6.72;;;;;;;10.11;56.71;100590.16;5069254;28;20341;-64
2022/09/27 09:20:35;;;;;;;132.07;11.77;;;;;;;9.86;58.44;100587.75;5072012;28;20333;-64
2022/09/27 09:23:44;;;;;;;80.00;6.65;;;;;;;9.69;59.19;100581.81;5070797;28;20052;-64
2022/09/27 09:26:41;;;;;;;17.10;2.20;;;;;;;9.54;60.73;100597.59;5069462;28;20298;-64
2022/09/27 09:30:00;;;;;;;14.85;1.77;;;;;;;9.30;62.21;100589.03;5070135;28;20063;-65
2022/09/27 09:33:08;;;;;;;60.17;4.15;;;;;;;9.11;63.35;100603.03;5054829;28;20065;-64
2022/09/27 09:35:57;;;;;;;21.27;2.00;;;;;;;8.88;63.77;100593.56;5036313;28;20049;-64
2022/09/27 09:38:44;;;;;;;26.33;2.58;;;;;;;8.74;63.43;100587.56;5071653;28;20107;-64
2022/09/27 09:41:23;;;;;;;13.35;1.60;;;;;;;8.92;62.61;100617.91;5071130;28;20052;-64
2022/09/27 09:47:29;;;;;;;5.32;1.95;;;;;;;8.57;62.79;100570.25;5069955;28;20044;-64
2022/09/27 09:50:18;;;;;;;85.88;11.02;;;;;;;8.87;63.80;100620.50;5024001;28;20041;-65
2022/09/27 09:53:01;;;;;;;11.90;6.20;;;;;;;8.79;64.05;100606.66;5070010;28;20052;-64
2022/09/27 10:01:46;;;;;;;7.57;1.58;;;;;;;8.45;62.13;100601.53;5071064;28;20052;-64
2022/09/27 10:04:51;;;;;;;1.50;0.93;;;;;;;8.21;62.54;100607.59;5069613;28;20060;-63
2022/09/27 10:07:31;;;;;;;6.45;1.20;;;;;;;7.93;61.96;100593.75;5070690;28;20613;-63
2022/09/27 10:10:18;;;;;;;2.08;0.93;;;;;;;7.77;61.40;100557.34;5070772;28;20049;-63
2022/09/27 10:13:02;;;;;;;26.92;2.40;;;;;;;8.13;60.19;100609.34;5036106;28;20064;-63
2022/09/27 10:15:39;;;;;;;8.55;1.38;;;;;;;8.31;58.12;100604.16;5069325;28;20044;-62
2022/09/27 10:21:35;;;;;;;3.10;1.10;;;;;;;8.79;54.96;100622.28;5036605;28;20082;-62
2022/09/27 10:24:25;;;;;;;2.15;0.90;;;;;;;8.44;53.59;100542.53;5070406;28;20305;-63
2022/09/27 10:27:11;;;;;;;4.00;1.70;;;;;;;8.91;53.46;100623.97;5069711;28;20072;-63
2022/09/27 10:29:56;;;;;;;1.98;1.60;;;;;;;8.81;54.31;100631.84;5070240;28;20056;-62
2022/09/27 10:32:40;;;;;;;4.05;1.98;;;;;;;8.63;55.78;100624.91;5071120;28;20101;-63
2022/09/27 10:35:40;;;;;;;8.00;2.40;;;;;;;8.53;56.53;100636.22;5069896;28;20060;-63
2022/09/27 10:38:32;;;;;;;3.08;2.00;;;;;;;8.24;57.52;100627.56;5069784;28;20279;-62
2022/09/27 10:41:25;;;;;;;16.00;2.15;;;;;;;8.17;59.62;100627.56;5069996;28;20047;-63
2022/09/27 10:44:36;;;;;;;23.50;3.33;;;;;;;8.18;60.22;100626.69;5072102;28;20083;-62
2022/09/27 10:47:24;;;;;;;41.88;4.00;;;;;;;8.14;61.54;100630.19;5069323;28;20045;-62
2022/09/27 10:50:27;;;;;;;38.90;6.78;;;;;;;7.96;63.44;100632.78;5072751;28;20212;-62
2022/09/27 10:53:33;;;;;;;17.55;3.17;;;;;;;7.79;63.32;100624.97;5060673;28;20116;-61
2022/09/27 10:56:28;;;;;;;11.23;2.35;;;;;;;7.96;64.60;100637.97;5073234;28;20064;-62
2022/09/27 10:59:23;;;;;;;44.78;5.70;;;;;;;7.94;64.84;100634.53;5074162;28;20048;-62
2022/09/27 11:02:09;;;;;;;33.30;7.85;;;;;;;7.75;65.43;100624.09;5073821;28;20084;-62
2022/09/27 11:05:37;;;;;;;37.85;10.18;;;;;;;7.77;66.64;100627.56;5073365;28;20118;-62
2022/09/27 11:08:34;;;;;;;19.08;6.57;;;;;;;7.48;66.91;100639.66;5071689;28;20050;-61
2022/09/27 11:11:35;;;;;;;27.45;4.03;;;;;;;7.31;66.58;100643.09;5073482;28;20053;-62
2022/09/27 11:14:23;;;;;;;17.10;3.30;;;;;;;7.37;65.57;100621.44;5073557;28;20072;-62
2022/09/27 11:20:27;;;;;;;8.10;2.92;;;;;;;7.53;65.24;100617.13;5062289;28;20119;-62
2022/09/27 11:23:50;;;;;;;8.73;2.65;;;;;;;7.58;66.68;100615.41;5084322;28;20043;-62
2022/09/27 11:26:45;;;;;;;20.52;5.22;;;;;;;7.35;67.11;100605.84;5090723;28;20062;-62
2022/09/27 11:29:34;;;;;;;12.68;2.95;;;;;;;6.82;67.30;100569.31;5092507;28;20128;-62
2022/09/27 11:32:31;;;;;;;6.93;2.25;;;;;;;7.09;67.44;100620.50;5093494;28;20063;-62
2022/09/27 11:35:40;;;;;;;7.70;2.50;;;;;;;7.10;66.91;100617.03;5092101;28;20118;-61
2022/09/27 11:38:53;;;;;;;10.45;2.88;;;;;;;7.15;67.94;100620.50;5045191;28;20185;-61
2022/09/27 11:42:08;;;;;;;7.43;2.45;;;;;;;7.10;68.44;100611.84;5062350;28;20111;-62
2022/09/27 11:45:24;;;;;;;20.60;3.30;;;;;;;7.14;69.24;100618.78;5092965;28;20045;-61
2022/09/27 11:48:51;;;;;;;10.00;2.80;;;;;;;6.98;68.80;100609.19;5093122;28;20048;-61
2022/09/27 11:51:48;;;;;;;13.57;2.80;;;;;;;6.54;69.12;100537.13;5023972;28;20070;-61
2022/09/27 11:55:30;;;;;;;13.60;4.75;;;;;;;6.89;68.68;100618.69;5064530;28;20103;-62
2022/09/27 11:58:28;;;;;;;12.13;5.40;;;;;;;6.93;70.69;100621.28;5092297;28;20091;-61
2022/09/27 12:01:30;;;;;;;14.45;7.15;;;;;;;6.82;71.54;100611.72;5091919;28;20059;-62
2022/09/27 12:07:46;;;;;;;13.13;5.82;;;;;;;6.67;71.84;100622.03;5089556;28;20052;-62
2022/09/27 12:10:33;;;;;;;14.68;6.40;;;;;;;6.59;72.61;100608.13;5092870;28;20301;-62
2022/09/27 12:13:21;;;;;;;17.02;10.48;;;;;;;6.54;72.23;100625.41;5092908;28;20048;-62
2022/09/27 12:16:05;;;;;;;16.88;6.95;;;;;;;6.14;72.53;100563.75;5090781;28;20060;-62
2022/09/27 12:19:03;;;;;;;6.43;2.83;;;;;;;6.43;71.50;100612.38;5061148;28;20345;-61
2022/09/27 12:25:25;;;;;;;2.97;1.80;;;;;;;6.96;70.67;100618.69;5091223;28;20048;-61
2022/09/27 12:28:35;;;;;;;3.47;1.83;;;;;;;6.79;70.62;100606.53;5049907;28;20064;-61
2022/09/27 12:31:25;;;;;;;5.22;2.10;;;;;;;6.75;71.33;100625.53;5092259;28;20044;-61
2022/09/27 12:34:18;;;;;;;4.18;1.73;;;;;;;6.76;70.88;100611.69;5091190;28;20039;-61
2022/09/27 12:37:13;;;;;;;2.88;1.30;;;;;;;6.90;70.14;100598.78;5092400;28;20053;-62
2022/09/27 12:40:00;;;;;;;3.47;1.80;;;;;;;6.74;69.92;100582.25;5044145;28;20048;-61
2022/09/27 12:42:43;;;;;;;8.07;1.60;;;;;;;7.02;69.99;100608.34;5091544;28;20142;-61
2022/09/27 12:45:38;;;;;;;3.45;1.45;;;;;;;7.03;71.16;100615.25;5041117;28;21010;-61
2022/09/27 12:48:26;;;;;;;6.45;1.50;;;;;;;6.97;71.30;100616.13;5091395;28;20114;-62
2022/09/27 12:51:12;;;;;;;9.32;1.98;;;;;;;6.93;71.69;100597.91;5091397;28;20052;-62
2022/09/27 12:54:24;;;;;;;3.60;1.58;;;;;;;7.06;71.31;100615.28;5091114;28;20178;-61
2022/09/27 13:00:22;;;;;;;5.18;1.60;;;;;;;7.08;70.49;100600.56;5091391;28;20083;-61
2022/09/27 13:03:25;;;;;;;6.03;1.50;;;;;;;7.15;70.79;100630.91;5091789;28;20048;-62
2022/09/27 13:06:23;;;;;;;8.02;2.05;;;;;;;6.99;69.59;100597.91;5091525;28;20066;-62
2022/09/27 13:09:47;;;;;;;7.15;2.00;;;;;;;7.16;69.67;100606.63;5091848;28;20128;-62
2022/09/27 13:12:29;;;;;;;2.35;1.50;;;;;;;7.02;69.65;100605.75;4999053;28;20058;-63
2022/09/27 13:15:26;;;;;;;2.28;1.60;;;;;;;7.09;68.91;100605.78;4998587;28;20190;-63
2022/09/27 13:18:26;;;;;;;4.60;1.50;;;;;;;7.10;68.41;100622.22;4998358;28;20577;-63
2022/09/27 13:21:20;;;;;;;14.65;2.10;;;;;;;6.99;68.49;100600.50;4951266;28;20093;-63
2022/09/27 13:24:05;;;;;;;7.50;1.60;;;;;;;6.82;68.21;100549.38;4999259;28;20062;-64
2022/09/27 13:26:57;;;;;;;3.95;1.80;;;;;;;7.31;67.67;100596.31;4999680;28;20347;-63
2022/09/27 13:29:36;;;;;;;11.25;2.30;;;;;;;7.35;67.74;100584.16;4999886;28;20311;-63
2022/09/27 13:32:38;;;;;;;8.73;2.65;;;;;;;7.52;67.53;100589.41;4999622;28;20065;-63
2022/09/27 13:35:26;;;;;;;6.78;2.30;;;;;;;7.44;67.22;100576.41;4999914;28;20067;-63
2022/09/27 13:38:31;;;;;;;10.98;2.80;;;;;;;7.56;67.12;100575.53;4999078;28;20058;-63
2022/09/27 13:41:20;;;;;;;11.30;3.40;;;;;;;7.40;67.39;100571.19;4998591;28;20077;-63
2022/09/27 13:44:19;;;;;;;13.35;4.25;;;;;;;7.37;68.21;100563.38;4998817;28;20227;-63
2022/09/27 13:46:57;;;;;;;15.85;4.55;;;;;;;7.16;69.21;100559.84;4998314;28;20062;-62
2022/09/27 13:49:52;;;;;;;11.10;4.70;;;;;;;7.23;69.34;100572.00;5090969;28;20266;-63
2022/09/27 13:52:34;;;;;;;22.48;5.18;;;;;;;7.14;69.82;100546.03;5089424;28;20082;-63
2022/09/27 13:55:48;;;;;;;16.15;5.18;;;;;;;6.63;70.16;100488.72;5091370;28;20052;-63
2022/09/27 13:58:47;;;;;;;19.33;4.90;;;;;;;7.00;70.68;100564.16;5039640;28;20036;-63
2022/09/27 14:01:33;;;;;;;16.23;5.47;;;;;;;6.77;71.03;100529.47;5088171;28;20060;-62
2022/09/27 14:04:23;;;;;;;16.67;5.50;;;;;;;6.77;71.31;100545.91;5044797;28;20048;-63
2022/09/27 14:07:19;;;;;;;12.32;4.82;;;;;;;6.69;71.65;100543.28;5057563;28;20495;-62
2022/09/27 14:10:08;;;;;;;16.67;4.78;;;;;;;6.79;71.76;100554.56;5062955;28;20450;-62
2022/09/27 14:12:53;;;;;;;16.45;4.47;;;;;;;6.89;71.45;100569.34;5062226;28;20100;-62
2022/09/27 14:16:05;;;;;;;11.10;4.28;;;;;;;6.82;71.70;100554.59;5060779;28;20189;-62
2022/09/27 14:18:52;;;;;;;14.30;5.10;;;;;;;6.81;72.18;100576.19;5063272;28;20045;-63
2022/09/27 14:21:37;;;;;;;12.70;4.32;;;;;;;6.94;71.99;100589.25;5061571;28;20053;-63
2022/09/27 14:24:55;;;;;;;15.15;5.43;;;;;;;6.83;71.81;100582.28;5063537;28;20049;-63
2022/09/27 14:27:42;;;;;;;19.15;5.38;;;;;;;6.58;72.13;100570.06;5066948;28;20061;-62
2022/09/27 14:30:26;;;;;;;13.43;4.82;;;;;;;6.28;72.75;100534.44;5066561;28;20064;-62
2022/09/27 14:33:02;;;;;;;;;;;;;;;6.65;73.04;100588.25;5068070;28;20052;-63
2022/09/27 14:38:59;;;;;;;7.40;3.70;;;;;;;6.42;74.22;100585.56;5066684;28;20056;-62